sensor_id;sensor_type;location;lat;lon;timestamp;pressure;altitude;pressure_sealevel;temperature;humidity
22743;BME280;11538;48.884;8.696;2024-01-06T00:02:11;97581.47;;;5.88;100.00
22743;BME280;11538;48.884;8.696;2024-01-06T00:04:41;97566.41;;;5.87;100.00
22743;BME280;11538;48.884;8.696;2024-01-06T00:07:11;97573.38;;;5.88;100.00
22743;BME280;11538;48.884;8.696;2024-01-06T00:09:40;97573.38;;;5.88;100.00
22743;BME280;11538;48.884;8.696;2024-01-06T00:12:08;97574.19;;;5.89;100.00
22743;BME280;11538;48.884;8.696;2024-01-06T00:14:35;97574.19;;;5.89;100.00
22743;BME280;11538;48.884;8.696;2024-01-06T00:17:02;97569.59;;;5.89;100.00
22743;BME280;11538;48.884;8.696;2024-01-06T00:19:32;97576.59;;;5.90;100.00
22743;BME280;11538;48.884;8.696;2024-01-06T00:21:59;97574.50;;;5.87;100.00
22743;BME280;11538;48.884;8.696;2024-01-06T00:24:27;97575.59;;;5.86;100.00
22743;BME280;11538;48.884;8.696;2024-01-06T00:26:55;97570.19;;;5.86;100.00
22743;BME280;11538;48.884;8.696;2024-01-06T00:29:22;97568.88;;;5.83;100.00
22743;BME280;11538;48.884;8.696;2024-01-06T00:31:52;97574.59;;;5.82;100.00
22743;BME280;11538;48.884;8.696;2024-01-06T00:34:19;97576.69;;;5.85;100.00
22743;BME280;11538;48.884;8.696;2024-01-06T00:36:49;97571.59;;;5.83;100.00
22743;BME280;11538;48.884;8.696;2024-01-06T00:39:23;97574.50;;;5.87;100.00
22743;BME280;11538;48.884;8.696;2024-01-06T00:41:50;97582.56;;;5.87;100.00
22743;BME280;11538;48.884;8.696;2024-01-06T00:44:23;97575.97;;;5.79;100.00
22743;BME280;11538;48.884;8.696;2024-01-06T00:47:04;97578.38;;;5.81;100.00
22743;BME280;11538;48.884;8.696;2024-01-06T00:49:35;97585.13;;;5.78;100.00
22743;BME280;11538;48.884;8.696;2024-01-06T00:52:08;97577.97;;;5.74;100.00
22743;BME280;11538;48.884;8.696;2024-01-06T00:54:37;97576.75;;;5.66;100.00
22743;BME280;11538;48.884;8.696;2024-01-06T00:57:05;97585.91;;;5.65;100.00
22743;BME280;11538;48.884;8.696;2024-01-06T00:59:35;97586.72;;;5.65;100.00
22743;BME280;11538;48.884;8.696;2024-01-06T01:02:07;97585.03;;;5.69;100.00
22743;BME280;11538;48.884;8.696;2024-01-06T01:04:37;97597.91;;;5.73;100.00
22743;BME280;11538;48.884;8.696;2024-01-06T01:07:04;97598.41;;;5.75;100.00
22743;BME280;11538;48.884;8.696;2024-01-06T01:09:39;97598.31;;;5.80;100.00
22743;BME280;11538;48.884;8.696;2024-01-06T01:12:06;97604.88;;;5.88;100.00
22743;BME280;11538;48.884;8.696;2024-01-06T01:14:33;97600.09;;;5.84;100.00
22743;BME280;11538;48.884;8.696;2024-01-06T01:17:00;97592.91;;;5.80;100.00
22743;BME280;11538;48.884;8.696;2024-01-06T01:19:27;97601.88;;;5.75;100.00
22743;BME280;11538;48.884;8.696;2024-01-06T01:22:00;97606.16;;;5.76;100.00
22743;BME280;11538;48.884;8.696;2024-01-06T01:24:27;97611.25;;;5.78;100.00
22743;BME280;11538;48.884;8.696;2024-01-06T01:26:54;97616.03;;;5.81;100.00
22743;BME280;11538;48.884;8.696;2024-01-06T01:29:21;97615.03;;;5.77;100.00
22743;BME280;11538;48.884;8.696;2024-01-06T01:31:48;97627.19;;;5.74;100.00
22743;BME280;11538;48.884;8.696;2024-01-06T01:34:15;97627.19;;;5.74;100.00
22743;BME280;11538;48.884;8.696;2024-01-06T01:36:42;97632.78;;;5.78;100.00
22743;BME280;11538;48.884;8.696;2024-01-06T01:39:11;97636.75;;;5.80;100.00
22743;BME280;11538;48.884;8.696;2024-01-06T01:41:40;97637.34;;;5.77;100.00
22743;BME280;11538;48.884;8.696;2024-01-06T01:44:10;97646.25;;;5.78;100.00
22743;BME280;11538;48.884;8.696;2024-01-06T01:46:41;97652.72;;;5.77;100.00
22743;BME280;11538;48.884;8.696;2024-01-06T01:49:08;97659.78;;;5.73;100.00
22743;BME280;11538;48.884;8.696;2024-01-06T01:51:36;97662.25;;;5.69;100.00
22743;BME280;11538;48.884;8.696;2024-01-06T01:54:06;97664.16;;;5.68;100.00
22743;BME280;11538;48.884;8.696;2024-01-06T01:56:36;97660.06;;;5.71;100.00
22743;BME280;11538;48.884;8.696;2024-01-06T01:59:11;97659.19;;;5.76;100.00
22743;BME280;11538;48.884;8.696;2024-01-06T02:01:42;97668.44;;;5.69;100.00
22743;BME280;11538;48.884;8.696;2024-01-06T02:04:09;97665.03;;;5.64;100.00
22743;BME280;11538;48.884;8.696;2024-01-06T02:06:36;97660.81;;;5.57;100.00
22743;BME280;11538;48.884;8.696;2024-01-06T02:09:03;97664.09;;;5.54;100.00
22743;BME280;11538;48.884;8.696;2024-01-06T02:11:30;97663.31;;;5.54;100.00
22743;BME280;11538;48.884;8.696;2024-01-06T02:13:58;97669.19;;;5.56;100.00
22743;BME280;11538;48.884;8.696;2024-01-06T02:16:24;97674.50;;;5.61;100.00
22743;BME280;11538;48.884;8.696;2024-01-06T02:18:54;97670.78;;;5.57;100.00
22743;BME280;11538;48.884;8.696;2024-01-06T02:21:23;97678.34;;;5.55;100.00
22743;BME280;11538;48.884;8.696;2024-01-06T02:23:50;97674.84;;;5.54;100.00
22743;BME280;11538;48.884;8.696;2024-01-06T02:26:17;97680.03;;;5.51;100.00
22743;BME280;11538;48.884;8.696;2024-01-06T02:28:44;97687.88;;;5.47;100.00
22743;BME280;11538;48.884;8.696;2024-01-06T02:31:15;97689.69;;;5.52;100.00
22743;BME280;11538;48.884;8.696;2024-01-06T02:33:42;97686.44;;;5.55;100.00
22743;BME280;11538;48.884;8.696;2024-01-06T02:36:09;97693.31;;;5.61;100.00
22743;BME280;11538;48.884;8.696;2024-01-06T02:38:36;97688.44;;;5.63;100.00
22743;BME280;11538;48.884;8.696;2024-01-06T02:41:03;97687.13;;;5.61;100.00
22743;BME280;11538;48.884;8.696;2024-01-06T02:43:30;97691.91;;;5.64;100.00
22743;BME280;11538;48.884;8.696;2024-01-06T02:45:57;97695.13;;;5.66;100.00
22743;BME280;11538;48.884;8.696;2024-01-06T02:48:24;97690.03;;;5.64;100.00
22743;BME280;11538;48.884;8.696;2024-01-06T02:50:51;97696.72;;;5.67;100.00
22743;BME280;11538;48.884;8.696;2024-01-06T02:53:18;97687.94;;;5.61;100.00
22743;BME280;11538;48.884;8.696;2024-01-06T02:55:45;97692.31;;;5.57;100.00
22743;BME280;11538;48.884;8.696;2024-01-06T02:58:12;97691.72;;;5.60;100.00
22743;BME280;11538;48.884;8.696;2024-01-06T03:00:38;97688.94;;;5.65;100.00
22743;BME280;11538;48.884;8.696;2024-01-06T03:03:06;97686.75;;;5.67;100.00
22743;BME280;11538;48.884;8.696;2024-01-06T03:05:33;97692.34;;;5.71;100.00
22743;BME280;11538;48.884;8.696;2024-01-06T03:07:59;97695.53;;;5.73;100.00
22743;BME280;11538;48.884;8.696;2024-01-06T03:10:26;97700.72;;;5.69;100.00
22743;BME280;11538;48.884;8.696;2024-01-06T03:12:53;97691.81;;;5.55;100.00
22743;BME280;11538;48.884;8.696;2024-01-06T03:15:21;97700.16;;;5.53;100.00
22743;BME280;11538;48.884;8.696;2024-01-06T03:17:48;97696.25;;;5.46;100.00
22743;BME280;11538;48.884;8.696;2024-01-06T03:20:15;97698.44;;;5.44;100.00
22743;BME280;11538;48.884;8.696;2024-01-06T03:22:42;97702.22;;;5.43;100.00
22743;BME280;11538;48.884;8.696;2024-01-06T03:25:10;97710.56;;;5.41;100.00
22743;BME280;11538;48.884;8.696;2024-01-06T03:27:38;97700.63;;;5.41;100.00
22743;BME280;11538;48.884;8.696;2024-01-06T03:30:07;97705.19;;;5.41;100.00
22743;BME280;11538;48.884;8.696;2024-01-06T03:32:34;97703.22;;;5.47;100.00
22743;BME280;11538;48.884;8.696;2024-01-06T03:35:01;97705.63;;;5.48;100.00
22743;BME280;11538;48.884;8.696;2024-01-06T03:37:28;97702.13;;;5.48;100.00
22743;BME280;11538;48.884;8.696;2024-01-06T03:39:55;97695.66;;;5.49;100.00
22743;BME280;11538;48.884;8.696;2024-01-06T03:42:22;97693.25;;;5.47;100.00
22743;BME280;11538;48.884;8.696;2024-01-06T03:44:49;97694.34;;;5.46;100.00
22743;BME280;11538;48.884;8.696;2024-01-06T03:47:18;97698.63;;;5.47;100.00
22743;BME280;11538;48.884;8.696;2024-01-06T03:49:46;97695.66;;;5.49;100.00
22743;BME280;11538;48.884;8.696;2024-01-06T03:52:13;97690.28;;;5.49;100.00
22743;BME280;11538;48.884;8.696;2024-01-06T03:54:41;97692.91;;;5.54;100.00
22743;BME280;11538;48.884;8.696;2024-01-06T03:57:08;97686.53;;;5.64;100.00
22743;BME280;11538;48.884;8.696;2024-01-06T03:59:35;97699.31;;;5.72;100.00
22743;BME280;11538;48.884;8.696;2024-01-06T04:02:02;97699.53;;;5.76;100.00
22743;BME280;11538;48.884;8.696;2024-01-06T04:04:29;97695.16;;;5.80;100.00
22743;BME280;11538;48.884;8.696;2024-01-06T04:06:55;97695.38;;;5.83;100.00
22743;BME280;11538;48.884;8.696;2024-01-06T04:09:22;97703.75;;;5.82;100.00
22743;BME280;11538;48.884;8.696;2024-01-06T04:11:49;97712.91;;;5.81;100.00
22743;BME280;11538;48.884;8.696;2024-01-06T04:14:16;97705.63;;;5.81;100.00
22743;BME280;11538;48.884;8.696;2024-01-06T04:16:43;97708.03;;;5.83;100.00
22743;BME280;11538;48.884;8.696;2024-01-06T04:19:11;97699.16;;;5.82;100.00
22743;BME280;11538;48.884;8.696;2024-01-06T04:21:39;97702.34;;;5.84;100.00
22743;BME280;11538;48.884;8.696;2024-01-06T04:24:06;97703.94;;;5.85;100.00
22743;BME280;11538;48.884;8.696;2024-01-06T04:26:33;97694.59;;;5.83;100.00
22743;BME280;11538;48.884;8.696;2024-01-06T04:29:00;97696.19;;;5.84;100.00
22743;BME280;11538;48.884;8.696;2024-01-06T04:31:27;97694.59;;;5.83;100.00
22743;BME280;11538;48.884;8.696;2024-01-06T04:33:54;97704.25;;;5.84;100.00
22743;BME280;11538;48.884;8.696;2024-01-06T04:36:21;97698.06;;;5.83;100.00
22743;BME280;11538;48.884;8.696;2024-01-06T04:38:48;97697.84;;;5.80;100.00
22743;BME280;11538;48.884;8.696;2024-01-06T04:41:15;97700.56;;;5.80;100.00
22743;BME280;11538;48.884;8.696;2024-01-06T04:43:42;97711.81;;;5.82;100.00
22743;BME280;11538;48.884;8.696;2024-01-06T04:46:09;97717.47;;;5.80;100.00
22743;BME280;11538;48.884;8.696;2024-01-06T04:48:36;97715.59;;;5.81;100.00
22743;BME280;11538;48.884;8.696;2024-01-06T04:51:03;97712.09;;;5.80;100.00
22743;BME280;11538;48.884;8.696;2024-01-06T04:53:30;97714.00;;;5.80;100.00
22743;BME280;11538;48.884;8.696;2024-01-06T04:55:57;97712.59;;;5.82;100.00
22743;BME280;11538;48.884;8.696;2024-01-06T04:58:24;97722.28;;;5.83;100.00
22743;BME280;11538;48.884;8.696;2024-01-06T05:00:51;97726.72;;;5.74;100.00
22743;BME280;11538;48.884;8.696;2024-01-06T05:03:19;97723.19;;;5.79;100.00
22743;BME280;11538;48.884;8.696;2024-01-06T05:05:46;97717.19;;;5.82;100.00
22743;BME280;11538;48.884;8.696;2024-01-06T05:08:13;97724.25;;;5.78;100.00
22743;BME280;11538;48.884;8.696;2024-01-06T05:10:40;97723.97;;;5.79;100.00
22743;BME280;11538;48.884;8.696;2024-01-06T05:13:07;97720.47;;;5.79;100.00
22743;BME280;11538;48.884;8.696;2024-01-06T05:15:34;97721.66;;;5.73;100.00
22743;BME280;11538;48.884;8.696;2024-01-06T05:18:01;97725.13;;;5.73;100.00
22743;BME280;11538;48.884;8.696;2024-01-06T05:20:28;97722.16;;;5.75;100.00
22743;BME280;11538;48.884;8.696;2024-01-06T05:22:55;97723.25;;;5.74;100.00
22743;BME280;11538;48.884;8.696;2024-01-06T05:25:22;97720.47;;;5.79;100.00
22743;BME280;11538;48.884;8.696;2024-01-06T05:27:49;97723.69;;;5.81;100.00
22743;BME280;11538;48.884;8.696;2024-01-06T05:30:16;97722.28;;;5.83;100.00
22743;BME280;11538;48.884;8.696;2024-01-06T05:32:43;97724.09;;;5.88;100.00
22743;BME280;11538;48.884;8.696;2024-01-06T05:35:10;97723.38;;;5.82;100.00
22743;BME280;11538;48.884;8.696;2024-01-06T05:37:38;97726.44;;;5.76;100.00
22743;BME280;11538;48.884;8.696;2024-01-06T05:40:06;97731.84;;;5.76;100.00
22743;BME280;11538;48.884;8.696;2024-01-06T05:42:33;97736.19;;;5.71;100.00
22743;BME280;11538;48.884;8.696;2024-01-06T05:45:00;97737.00;;;5.72;100.00
22743;BME280;11538;48.884;8.696;2024-01-06T05:47:27;97736.19;;;5.71;100.00
22743;BME280;11538;48.884;8.696;2024-01-06T05:49:54;97732.13;;;5.74;100.00
22743;BME280;11538;48.884;8.696;2024-01-06T05:52:21;97739.91;;;5.76;100.00
22743;BME280;11538;48.884;8.696;2024-01-06T05:54:48;97743.69;;;5.75;100.00
22743;BME280;11538;48.884;8.696;2024-01-06T05:57:15;97746.56;;;5.78;100.00
22743;BME280;11538;48.884;8.696;2024-01-06T05:59:44;97743.59;;;5.80;100.00
22743;BME280;11538;48.884;8.696;2024-01-06T06:02:10;97753.28;;;5.81;100.00
22743;BME280;11538;48.884;8.696;2024-01-06T06:04:37;97750.34;;;5.77;100.00
22743;BME280;11538;48.884;8.696;2024-01-06T06:07:04;97749.06;;;5.75;100.00
22743;BME280;11538;48.884;8.696;2024-01-06T06:09:31;97753.13;;;5.72;100.00
22743;BME280;11538;48.884;8.696;2024-01-06T06:12:01;97751.25;;;5.73;100.00
22743;BME280;11538;48.884;8.696;2024-01-06T06:14:28;97763.09;;;5.71;100.00
22743;BME280;11538;48.884;8.696;2024-01-06T06:16:56;97769.50;;;5.76;100.00
22743;BME280;11538;48.884;8.696;2024-01-06T06:19:23;97763.91;;;5.72;100.00
22743;BME280;11538;48.884;8.696;2024-01-06T06:21:50;97760.41;;;5.71;100.00
22743;BME280;11538;48.884;8.696;2024-01-06T06:24:17;97768.19;;;5.73;100.00
22743;BME280;11538;48.884;8.696;2024-01-06T06:26:45;97766.31;;;5.74;100.00
22743;BME280;11538;48.884;8.696;2024-01-06T06:29:11;97771.09;;;5.77;100.00
22743;BME280;11538;48.884;8.696;2024-01-06T06:31:38;97778.00;;;5.83;100.00
22743;BME280;11538;48.884;8.696;2024-01-06T06:34:05;97778.00;;;5.83;100.00
22743;BME280;11538;48.884;8.696;2024-01-06T06:36:35;97789.56;;;5.83;100.00
22743;BME280;11538;48.884;8.696;2024-01-06T06:39:02;97783.88;;;5.85;100.00
22743;BME280;11538;48.884;8.696;2024-01-06T06:41:31;97792.47;;;5.87;100.00
22743;BME280;11538;48.884;8.696;2024-01-06T06:43:58;97788.69;;;5.88;100.00
22743;BME280;11538;48.884;8.696;2024-01-06T06:46:25;97794.06;;;5.88;100.00
22743;BME280;11538;48.884;8.696;2024-01-06T06:48:52;97794.06;;;5.88;100.00
22743;BME280;11538;48.884;8.696;2024-01-06T06:51:18;97803.44;;;5.91;100.00
22743;BME280;11538;48.884;8.696;2024-01-06T06:53:48;97806.34;;;5.94;100.00
22743;BME280;11538;48.884;8.696;2024-01-06T06:56:17;97805.25;;;5.95;100.00
22743;BME280;11538;48.884;8.696;2024-01-06T06:58:44;97811.44;;;5.96;100.00
22743;BME280;11538;48.884;8.696;2024-01-06T07:01:14;97815.22;;;5.95;100.00
22743;BME280;11538;48.884;8.696;2024-01-06T07:03:42;97821.41;;;5.95;100.00
22743;BME280;11538;48.884;8.696;2024-01-06T07:06:12;97823.00;;;5.96;100.00
22743;BME280;11538;48.884;8.696;2024-01-06T07:08:41;97822.72;;;5.98;100.00
22743;BME280;11538;48.884;8.696;2024-01-06T07:11:08;97833.78;;;5.96;100.00
22743;BME280;11538;48.884;8.696;2024-01-06T07:13:37;97834.63;;;5.92;100.00
22743;BME280;11538;48.884;8.696;2024-01-06T07:16:05;97833.28;;;5.94;100.00
22743;BME280;11538;48.884;8.696;2024-01-06T07:18:43;97836.53;;;5.91;100.00
22743;BME280;11538;48.884;8.696;2024-01-06T07:21:12;97828.66;;;5.95;100.00
22743;BME280;11538;48.884;8.696;2024-01-06T07:23:40;97833.78;;;5.96;100.00
22743;BME280;11538;48.884;8.696;2024-01-06T07:26:06;97833.50;;;5.98;100.00
22743;BME280;11538;48.884;8.696;2024-01-06T07:28:34;97833.50;;;5.98;100.00
22743;BME280;11538;48.884;8.696;2024-01-06T07:31:01;97836.66;;;6.05;100.00
22743;BME280;11538;48.884;8.696;2024-01-06T07:33:29;97846.00;;;6.08;100.00
22743;BME280;11538;48.884;8.696;2024-01-06T07:35:56;97846.59;;;6.05;100.00
22743;BME280;11538;48.884;8.696;2024-01-06T07:38:24;97850.16;;;6.00;100.00
22743;BME280;11538;48.884;8.696;2024-01-06T07:40:51;97852.03;;;5.99;100.00
22743;BME280;11538;48.884;8.696;2024-01-06T07:43:18;97846.91;;;6.03;100.00
22743;BME280;11538;48.884;8.696;2024-01-06T07:45:44;97851.72;;;6.06;100.00
22743;BME280;11538;48.884;8.696;2024-01-06T07:48:11;97861.88;;;6.09;100.00
22743;BME280;11538;48.884;8.696;2024-01-06T07:50:39;97857.59;;;6.08;100.00
22743;BME280;11538;48.884;8.696;2024-01-06T07:53:05;97858.97;;;6.06;100.00
22743;BME280;11538;48.884;8.696;2024-01-06T07:55:34;97865.16;;;6.06;100.00
22743;BME280;11538;48.884;8.696;2024-01-06T07:58:02;97862.41;;;6.11;100.00
22743;BME280;11538;48.884;8.696;2024-01-06T08:00:29;97865.09;;;6.11;100.00
22743;BME280;11538;48.884;8.696;2024-01-06T08:02:56;97871.25;;;6.12;100.00
22743;BME280;11538;48.884;8.696;2024-01-06T08:05:23;97874.53;;;6.09;100.00
22743;BME280;11538;48.884;8.696;2024-01-06T08:07:51;97875.63;;;6.08;100.00
22743;BME280;11538;48.884;8.696;2024-01-06T08:10:18;97869.47;;;6.07;100.00
22743;BME280;11538;48.884;8.696;2024-01-06T08:12:45;97878.63;;;6.06;100.00
22743;BME280;11538;48.884;8.696;2024-01-06T08:15:12;97879.41;;;6.07;100.00
22743;BME280;11538;48.884;8.696;2024-01-06T08:17:39;97881.59;;;6.05;100.00
22743;BME280;11538;48.884;8.696;2024-01-06T08:20:09;97888.06;;;6.04;100.00
22743;BME280;11538;48.884;8.696;2024-01-06T08:22:36;97885.38;;;6.04;100.00
22743;BME280;11538;48.884;8.696;2024-01-06T08:25:03;97885.88;;;6.06;100.00
22743;BME280;11538;48.884;8.696;2024-01-06T08:27:33;97884.72;;;6.12;100.00
22743;BME280;11538;48.884;8.696;2024-01-06T08:30:22;97879.34;;;6.12;100.00
22743;BME280;11538;48.884;8.696;2024-01-06T08:32:51;97887.50;;;6.07;100.00
22743;BME280;11538;48.884;8.696;2024-01-06T08:35:19;97882.69;;;6.04;100.00
22743;BME280;11538;48.884;8.696;2024-01-06T08:37:46;97886.97;;;6.05;100.00
22743;BME280;11538;48.884;8.696;2024-01-06T08:40:13;97886.78;;;6.01;100.00
22743;BME280;11538;48.884;8.696;2024-01-06T08:42:40;97892.16;;;6.01;100.00
22743;BME280;11538;48.884;8.696;2024-01-06T08:45:07;97889.22;;;5.97;100.00
22743;BME280;11538;48.884;8.696;2024-01-06T08:47:34;97895.75;;;5.91;100.00
22743;BME280;11538;48.884;8.696;2024-01-06T08:50:01;97894.50;;;5.83;100.00
22743;BME280;11538;48.884;8.696;2024-01-06T08:52:28;97891.47;;;5.90;100.00
22743;BME280;11538;48.884;8.696;2024-01-06T08:54:55;97897.34;;;5.92;100.00
22743;BME280;11538;48.884;8.696;2024-01-06T08:57:22;97894.66;;;5.92;100.00
22743;BME280;11538;48.884;8.696;2024-01-06T08:59:49;97905.72;;;5.91;100.00
22743;BME280;11538;48.884;8.696;2024-01-06T09:02:16;97909.22;;;5.91;100.00
22743;BME280;11538;48.884;8.696;2024-01-06T09:04:43;97907.63;;;5.90;100.00
22743;BME280;11538;48.884;8.696;2024-01-06T09:07:10;97910.81;;;5.92;100.00
22743;BME280;11538;48.884;8.696;2024-01-06T09:09:37;97912.75;;;5.86;100.00
22743;BME280;11538;48.884;8.696;2024-01-06T09:12:04;97906.59;;;5.86;100.00
22743;BME280;11538;48.884;8.696;2024-01-06T09:14:31;97916.53;;;5.85;100.00
22743;BME280;11538;48.884;8.696;2024-01-06T09:16:58;97918.44;;;5.85;100.00
22743;BME280;11538;48.884;8.696;2024-01-06T09:19:25;97912.50;;;5.88;100.00
22743;BME280;11538;48.884;8.696;2024-01-06T09:21:57;97918.97;;;5.87;100.00
22743;BME280;11538;48.884;8.696;2024-01-06T09:24:24;97921.13;;;5.85;100.00
22743;BME280;11538;48.884;8.696;2024-01-06T09:26:51;97921.13;;;5.85;100.00
22743;BME280;11538;48.884;8.696;2024-01-06T09:29:21;97923.84;;;5.85;100.00
22743;BME280;11538;48.884;8.696;2024-01-06T09:31:48;97928.91;;;5.86;100.00
22743;BME280;11538;48.884;8.696;2024-01-06T09:34:15;97929.41;;;5.89;100.00
22743;BME280;11538;48.884;8.696;2024-01-06T09:36:42;97937.94;;;5.96;100.00
22743;BME280;11538;48.884;8.696;2024-01-06T09:39:09;97934.19;;;5.97;100.00
22743;BME280;11538;48.884;8.696;2024-01-06T09:41:36;97942.81;;;5.94;100.00
22743;BME280;11538;48.884;8.696;2024-01-06T09:44:03;97934.47;;;5.95;100.00
22743;BME280;11538;48.884;8.696;2024-01-06T09:46:31;97937.16;;;5.95;100.00
22743;BME280;11538;48.884;8.696;2024-01-06T09:48:59;97939.09;;;5.90;100.00
22743;BME280;11538;48.884;8.696;2024-01-06T09:51:27;97942.03;;;5.93;100.00
22743;BME280;11538;48.884;8.696;2024-01-06T09:54:00;97944.66;;;5.98;100.00
22743;BME280;11538;48.884;8.696;2024-01-06T09:56:28;97944.59;;;6.04;100.00
22743;BME280;11538;48.884;8.696;2024-01-06T09:58:56;97952.91;;;6.07;100.00
22743;BME280;11538;48.884;8.696;2024-01-06T10:01:23;97956.13;;;6.09;100.00
22743;BME280;11538;48.884;8.696;2024-01-06T10:03:51;97953.50;;;6.04;100.00
22743;BME280;11538;48.884;8.696;2024-01-06T10:06:18;97949.47;;;6.02;100.00
22743;BME280;11538;48.884;8.696;2024-01-06T10:08:52;97956.47;;;6.03;100.00
22743;BME280;11538;48.884;8.696;2024-01-06T10:11:22;97953.78;;;6.03;100.00
22743;BME280;11538;48.884;8.696;2024-01-06T10:13:50;97958.38;;;6.02;100.00
22743;BME280;11538;48.884;8.696;2024-01-06T10:16:20;97956.97;;;6.05;100.00
22743;BME280;11538;48.884;8.696;2024-01-06T10:18:47;97954.59;;;6.03;100.00
22743;BME280;11538;48.884;8.696;2024-01-06T10:21:25;97954.50;;;6.08;100.00
22743;BME280;11538;48.884;8.696;2024-01-06T10:23:54;97948.56;;;6.11;100.00
22743;BME280;11538;48.884;8.696;2024-01-06T10:26:21;97949.34;;;6.12;100.00
22743;BME280;11538;48.884;8.696;2024-01-06T10:28:49;97957.47;;;6.07;100.00
22743;BME280;11538;48.884;8.696;2024-01-06T10:31:18;97953.19;;;6.06;100.00
22743;BME280;11538;48.884;8.696;2024-01-06T10:33:45;97959.09;;;6.08;100.00
22743;BME280;11538;48.884;8.696;2024-01-06T10:36:12;97957.78;;;6.05;100.00
22743;BME280;11538;48.884;8.696;2024-01-06T10:38:40;97951.91;;;6.03;100.00
22743;BME280;11538;48.884;8.696;2024-01-06T10:41:07;97952.09;;;6.07;100.00
22743;BME280;11538;48.884;8.696;2024-01-06T10:43:36;97955.31;;;6.09;100.00
22743;BME280;11538;48.884;8.696;2024-01-06T10:46:08;97959.91;;;6.08;100.00
22743;BME280;11538;48.884;8.696;2024-01-06T10:48:40;97956.56;;;6.17;100.00
22743;BME280;11538;48.884;8.696;2024-01-06T10:51:12;97957.41;;;6.12;100.00
22743;BME280;11538;48.884;8.696;2024-01-06T10:53:41;97959.00;;;6.13;100.00
22743;BME280;11538;48.884;8.696;2024-01-06T10:56:09;97959.31;;;6.11;100.00
22743;BME280;11538;48.884;8.696;2024-01-06T10:58:47;97959.16;;;6.03;100.00
22743;BME280;11538;48.884;8.696;2024-01-06T11:01:22;97954.50;;;6.08;100.00
22743;BME280;11538;48.884;8.696;2024-01-06T11:03:56;97951.53;;;6.10;100.00
22743;BME280;11538;48.884;8.696;2024-01-06T11:06:24;97950.94;;;6.13;100.00
22743;BME280;11538;48.884;8.696;2024-01-06T11:09:14;97945.56;;;6.13;100.00
22743;BME280;11538;48.884;8.696;2024-01-06T11:11:43;97948.91;;;6.05;100.00
22743;BME280;11538;48.884;8.696;2024-01-06T11:14:25;97949.75;;;6.00;100.00
22743;BME280;11538;48.884;8.696;2024-01-06T11:16:54;97948.69;;;6.01;100.00
22743;BME280;11538;48.884;8.696;2024-01-06T11:22:30;97953.50;;;6.04;100.00
22743;BME280;11538;48.884;8.696;2024-01-06T11:25:14;97946.00;;;6.01;100.00
22743;BME280;11538;48.884;8.696;2024-01-06T11:27:47;97952.22;;;5.96;100.00
22743;BME280;11538;48.884;8.696;2024-01-06T11:30:25;97942.25;;;5.97;100.00
22743;BME280;11538;48.884;8.696;2024-01-06T11:32:55;97941.13;;;6.03;100.00
22743;BME280;11538;48.884;8.696;2024-01-06T11:35:27;97949.72;;;6.05;100.00
22743;BME280;11538;48.884;8.696;2024-01-06T11:37:57;97945.94;;;6.06;100.00
22743;BME280;11538;48.884;8.696;2024-01-06T11:40:36;97947.81;;;6.06;100.00
22743;BME280;11538;48.884;8.696;2024-01-06T11:43:09;97943.31;;;6.01;100.00
22743;BME280;11538;48.884;8.696;2024-01-06T11:45:46;97945.69;;;6.03;100.00
22743;BME280;11538;48.884;8.696;2024-01-06T11:48:24;97942.34;;;6.11;100.00
22743;BME280;11538;48.884;8.696;2024-01-06T11:50:58;97935.59;;;6.13;100.00
22743;BME280;11538;48.884;8.696;2024-01-06T11:53:33;97936.38;;;6.14;100.00
22743;BME280;11538;48.884;8.696;2024-01-06T11:56:09;97932.59;;;6.15;100.00
22743;BME280;11538;48.884;8.696;2024-01-06T11:58:46;97931.50;;;6.16;100.00
22743;BME280;11538;48.884;8.696;2024-01-06T12:01:13;97932.84;;;6.19;100.00
22743;BME280;11538;48.884;8.696;2024-01-06T12:03:40;97930.72;;;6.16;100.00
22743;BME280;11538;48.884;8.696;2024-01-06T12:06:07;97926.13;;;6.16;100.00
22743;BME280;11538;48.884;8.696;2024-01-06T12:08:34;97921.31;;;6.13;100.00
22743;BME280;11538;48.884;8.696;2024-01-06T12:11:05;97917.34;;;6.10;100.00
22743;BME280;11538;48.884;8.696;2024-01-06T12:13:37;97918.44;;;6.09;100.00
22743;BME280;11538;48.884;8.696;2024-01-06T12:16:04;97917.34;;;6.10;100.00
22743;BME280;11538;48.884;8.696;2024-01-06T12:18:31;97920.22;;;6.14;100.00
22743;BME280;11538;48.884;8.696;2024-01-06T12:21:00;97918.63;;;6.13;100.00
22743;BME280;11538;48.884;8.696;2024-01-06T12:23:29;97920.03;;;6.10;100.00
22743;BME280;11538;48.884;8.696;2024-01-06T12:25:56;97917.34;;;6.10;100.00
22743;BME280;11538;48.884;8.696;2024-01-06T12:28:23;97912.97;;;6.14;100.00
22743;BME280;11538;48.884;8.696;2024-01-06T12:30:51;97917.84;;;6.12;100.00
22743;BME280;11538;48.884;8.696;2024-01-06T12:33:20;97918.63;;;6.13;100.00
22743;BME280;11538;48.884;8.696;2024-01-06T12:35:47;97920.72;;;6.16;100.00
22743;BME280;11538;48.884;8.696;2024-01-06T12:38:14;97919.44;;;6.13;100.00
22743;BME280;11538;48.884;8.696;2024-01-06T12:40:41;97920.03;;;6.10;100.00
22743;BME280;11538;48.884;8.696;2024-01-06T12:43:08;97919.72;;;6.12;100.00
22743;BME280;11538;48.884;8.696;2024-01-06T12:45:35;97918.44;;;6.09;100.00
22743;BME280;11538;48.884;8.696;2024-01-06T12:48:02;97922.41;;;6.12;100.00
22743;BME280;11538;48.884;8.696;2024-01-06T12:50:29;97918.69;;;6.08;100.00
22743;BME280;11538;48.884;8.696;2024-01-06T12:52:56;97918.44;;;6.09;100.00
22743;BME280;11538;48.884;8.696;2024-01-06T12:55:23;97921.91;;;6.10;100.00
22743;BME280;11538;48.884;8.696;2024-01-06T12:57:50;97916.31;;;6.06;100.00
22743;BME280;11538;48.884;8.696;2024-01-06T13:00:17;97924.09;;;6.08;100.00
22743;BME280;11538;48.884;8.696;2024-01-06T13:02:45;97918.88;;;6.17;100.00
22743;BME280;11538;48.884;8.696;2024-01-06T13:05:12;97915.66;;;6.14;100.00
22743;BME280;11538;48.884;8.696;2024-01-06T13:07:39;97914.34;;;6.12;100.00
22743;BME280;11538;48.884;8.696;2024-01-06T13:10:07;97914.06;;;6.13;100.00